sensor_id;sensor_type;location;lat;lon;timestamp;P1;durP1;ratioP1;P2;durP2;ratioP2
2866;SDS011;1441;48.886;8.728;2024-02-21T00:00:09;12.33;;;2.83;;
2866;SDS011;1441;48.886;8.728;2024-02-21T00:02:36;5.90;;;1.80;;
2866;SDS011;1441;48.886;8.728;2024-02-21T00:05:02;6.80;;;3.00;;
2866;SDS011;1441;48.886;8.728;2024-02-21T00:07:28;10.97;;;4.23;;
2866;SDS011;1441;48.886;8.728;2024-02-21T00:09:53;6.53;;;2.37;;
2866;SDS011;1441;48.886;8.728;2024-02-21T00:12:19;6.57;;;2.00;;
2866;SDS011;1441;48.886;8.728;2024-02-21T00:14:44;9.77;;;2.43;;
2866;SDS011;1441;48.886;8.728;2024-02-21T00:17:10;11.93;;;2.57;;
2866;SDS011;1441;48.886;8.728;2024-02-21T00:19:35;4.70;;;2.00;;
2866;SDS011;1441;48.886;8.728;2024-02-21T00:22:01;10.27;;;2.90;;
2866;SDS011;1441;48.886;8.728;2024-02-21T00:24:27;6.07;;;2.10;;
2866;SDS011;1441;48.886;8.728;2024-02-21T00:26:53;9.27;;;2.00;;
2866;SDS011;1441;48.886;8.728;2024-02-21T00:29:19;10.67;;;1.93;;
2866;SDS011;1441;48.886;8.728;2024-02-21T00:31:45;5.80;;;1.93;;
2866;SDS011;1441;48.886;8.728;2024-02-21T00:34:10;8.70;;;1.77;;
2866;SDS011;1441;48.886;8.728;2024-02-21T00:36:37;7.53;;;1.97;;
2866;SDS011;1441;48.886;8.728;2024-02-21T00:39:03;8.33;;;1.90;;
2866;SDS011;1441;48.886;8.728;2024-02-21T00:41:29;9.10;;;2.03;;
2866;SDS011;1441;48.886;8.728;2024-02-21T00:43:54;10.37;;;2.50;;
2866;SDS011;1441;48.886;8.728;2024-02-21T00:46:20;7.33;;;1.90;;
2866;SDS011;1441;48.886;8.728;2024-02-21T00:48:45;8.80;;;3.30;;
2866;SDS011;1441;48.886;8.728;2024-02-21T00:51:11;5.50;;;2.27;;
2866;SDS011;1441;48.886;8.728;2024-02-21T00:53:36;2.83;;;1.30;;
2866;SDS011;1441;48.886;8.728;2024-02-21T00:56:04;6.40;;;2.00;;
2866;SDS011;1441;48.886;8.728;2024-02-21T00:58:30;8.20;;;1.90;;
2866;SDS011;1441;48.886;8.728;2024-02-21T01:00:56;6.37;;;2.40;;
2866;SDS011;1441;48.886;8.728;2024-02-21T01:03:21;3.70;;;1.90;;
2866;SDS011;1441;48.886;8.728;2024-02-21T01:05:47;5.73;;;1.70;;
2866;SDS011;1441;48.886;8.728;2024-02-21T01:08:12;7.57;;;1.97;;
2866;SDS011;1441;48.886;8.728;2024-02-21T01:10:38;8.40;;;2.07;;
2866;SDS011;1441;48.886;8.728;2024-02-21T01:13:03;6.40;;;2.00;;
2866;SDS011;1441;48.886;8.728;2024-02-21T01:15:29;5.17;;;2.43;;
2866;SDS011;1441;48.886;8.728;2024-02-21T01:17:54;6.20;;;1.67;;
2866;SDS011;1441;48.886;8.728;2024-02-21T01:20:20;9.93;;;2.50;;
2866;SDS011;1441;48.886;8.728;2024-02-21T01:22:46;9.93;;;2.67;;
2866;SDS011;1441;48.886;8.728;2024-02-21T01:25:12;6.73;;;2.30;;
2866;SDS011;1441;48.886;8.728;2024-02-21T01:27:37;13.40;;;2.40;;
2866;SDS011;1441;48.886;8.728;2024-02-21T01:30:03;6.13;;;1.87;;
2866;SDS011;1441;48.886;8.728;2024-02-21T01:32:30;7.30;;;2.00;;
2866;SDS011;1441;48.886;8.728;2024-02-21T01:34:56;6.57;;;1.80;;
2866;SDS011;1441;48.886;8.728;2024-02-21T01:37:21;5.57;;;1.93;;
2866;SDS011;1441;48.886;8.728;2024-02-21T01:39:47;11.10;;;2.17;;
2866;SDS011;1441;48.886;8.728;2024-02-21T01:42:14;8.00;;;2.43;;
2866;SDS011;1441;48.886;8.728;2024-02-21T01:44:39;5.57;;;1.80;;
2866;SDS011;1441;48.886;8.728;2024-02-21T01:47:06;7.20;;;2.20;;
2866;SDS011;1441;48.886;8.728;2024-02-21T01:49:32;10.20;;;1.60;;
2866;SDS011;1441;48.886;8.728;2024-02-21T01:51:58;5.80;;;1.50;;
2866;SDS011;1441;48.886;8.728;2024-02-21T01:54:25;5.83;;;2.27;;
2866;SDS011;1441;48.886;8.728;2024-02-21T01:56:53;9.13;;;1.80;;
2866;SDS011;1441;48.886;8.728;2024-02-21T01:59:19;8.27;;;2.10;;
2866;SDS011;1441;48.886;8.728;2024-02-21T02:01:46;12.90;;;2.00;;
2866;SDS011;1441;48.886;8.728;2024-02-21T02:04:12;7.57;;;2.23;;
2866;SDS011;1441;48.886;8.728;2024-02-21T02:06:39;6.47;;;1.70;;
2866;SDS011;1441;48.886;8.728;2024-02-21T02:09:05;6.60;;;1.83;;
2866;SDS011;1441;48.886;8.728;2024-02-21T02:11:31;6.70;;;2.30;;
2866;SDS011;1441;48.886;8.728;2024-02-21T02:13:57;7.30;;;1.93;;
2866;SDS011;1441;48.886;8.728;2024-02-21T02:16:22;10.73;;;2.80;;
2866;SDS011;1441;48.886;8.728;2024-02-21T02:18:48;4.93;;;2.03;;
2866;SDS011;1441;48.886;8.728;2024-02-21T02:21:16;12.30;;;2.30;;
2866;SDS011;1441;48.886;8.728;2024-02-21T02:23:57;9.07;;;2.10;;
2866;SDS011;1441;48.886;8.728;2024-02-21T02:26:23;6.07;;;2.20;;
2866;SDS011;1441;48.886;8.728;2024-02-21T02:28:49;4.73;;;1.90;;
2866;SDS011;1441;48.886;8.728;2024-02-21T02:31:15;8.87;;;2.37;;
2866;SDS011;1441;48.886;8.728;2024-02-21T02:33:42;3.33;;;1.93;;
2866;SDS011;1441;48.886;8.728;2024-02-21T02:36:10;4.50;;;1.67;;
2866;SDS011;1441;48.886;8.728;2024-02-21T02:38:36;9.80;;;2.00;;
2866;SDS011;1441;48.886;8.728;2024-02-21T02:41:02;10.03;;;2.07;;
2866;SDS011;1441;48.886;8.728;2024-02-21T02:43:27;3.50;;;1.30;;
2866;SDS011;1441;48.886;8.728;2024-02-21T02:45:53;10.03;;;2.40;;
2866;SDS011;1441;48.886;8.728;2024-02-21T02:48:18;9.00;;;2.13;;
2866;SDS011;1441;48.886;8.728;2024-02-21T02:50:44;7.20;;;2.03;;
2866;SDS011;1441;48.886;8.728;2024-02-21T02:53:11;6.33;;;1.83;;
2866;SDS011;1441;48.886;8.728;2024-02-21T02:55:36;10.13;;;1.90;;
2866;SDS011;1441;48.886;8.728;2024-02-21T02:58:02;4.23;;;2.30;;
2866;SDS011;1441;48.886;8.728;2024-02-21T03:00:27;4.77;;;2.17;;
2866;SDS011;1441;48.886;8.728;2024-02-21T03:02:53;8.87;;;2.20;;
2866;SDS011;1441;48.886;8.728;2024-02-21T03:05:19;6.07;;;2.13;;
2866;SDS011;1441;48.886;8.728;2024-02-21T03:07:46;4.07;;;1.70;;
2866;SDS011;1441;48.886;8.728;2024-02-21T03:10:12;3.70;;;1.57;;
2866;SDS011;1441;48.886;8.728;2024-02-21T03:12:39;2.50;;;1.20;;
2866;SDS011;1441;48.886;8.728;2024-02-21T03:15:05;12.70;;;2.40;;
2866;SDS011;1441;48.886;8.728;2024-02-21T03:17:31;9.43;;;2.10;;
2866;SDS011;1441;48.886;8.728;2024-02-21T03:19:57;6.77;;;2.00;;
2866;SDS011;1441;48.886;8.728;2024-02-21T03:22:24;4.20;;;2.10;;
2866;SDS011;1441;48.886;8.728;2024-02-21T03:24:50;4.50;;;2.00;;
2866;SDS011;1441;48.886;8.728;2024-02-21T03:27:16;9.77;;;2.60;;
2866;SDS011;1441;48.886;8.728;2024-02-21T03:29:42;3.97;;;1.80;;
2866;SDS011;1441;48.886;8.728;2024-02-21T03:32:07;11.00;;;1.70;;
2866;SDS011;1441;48.886;8.728;2024-02-21T03:34:33;4.83;;;2.67;;
2866;SDS011;1441;48.886;8.728;2024-02-21T03:36:58;8.60;;;1.80;;
2866;SDS011;1441;48.886;8.728;2024-02-21T03:39:24;5.23;;;2.23;;
2866;SDS011;1441;48.886;8.728;2024-02-21T03:41:50;8.30;;;2.00;;
2866;SDS011;1441;48.886;8.728;2024-02-21T03:44:16;8.10;;;1.63;;
2866;SDS011;1441;48.886;8.728;2024-02-21T03:46:41;9.50;;;1.70;;
2866;SDS011;1441;48.886;8.728;2024-02-21T03:49:07;3.33;;;2.20;;
2866;SDS011;1441;48.886;8.728;2024-02-21T03:51:32;5.43;;;2.03;;
2866;SDS011;1441;48.886;8.728;2024-02-21T03:53:58;7.13;;;2.23;;
2866;SDS011;1441;48.886;8.728;2024-02-21T03:56:24;7.10;;;2.10;;
2866;SDS011;1441;48.886;8.728;2024-02-21T03:58:49;3.77;;;1.70;;
2866;SDS011;1441;48.886;8.728;2024-02-21T04:01:15;4.90;;;1.33;;
2866;SDS011;1441;48.886;8.728;2024-02-21T04:03:42;5.70;;;1.60;;
2866;SDS011;1441;48.886;8.728;2024-02-21T04:06:10;11.60;;;2.17;;
2866;SDS011;1441;48.886;8.728;2024-02-21T04:08:36;8.47;;;1.70;;
2866;SDS011;1441;48.886;8.728;2024-02-21T04:11:02;8.53;;;2.13;;
2866;SDS011;1441;48.886;8.728;2024-02-21T04:13:27;7.23;;;2.10;;
2866;SDS011;1441;48.886;8.728;2024-02-21T04:15:53;7.60;;;1.63;;
2866;SDS011;1441;48.886;8.728;2024-02-21T04:18:18;5.23;;;1.80;;
2866;SDS011;1441;48.886;8.728;2024-02-21T04:20:44;5.17;;;1.83;;
2866;SDS011;1441;48.886;8.728;2024-02-21T04:23:09;6.67;;;1.80;;
2866;SDS011;1441;48.886;8.728;2024-02-21T04:25:35;4.63;;;1.63;;
2866;SDS011;1441;48.886;8.728;2024-02-21T04:28:01;7.00;;;1.70;;
2866;SDS011;1441;48.886;8.728;2024-02-21T04:30:27;5.50;;;1.40;;
2866;SDS011;1441;48.886;8.728;2024-02-21T04:32:53;8.13;;;2.23;;
2866;SDS011;1441;48.886;8.728;2024-02-21T04:35:18;5.67;;;1.93;;
2866;SDS011;1441;48.886;8.728;2024-02-21T04:37:44;8.70;;;2.40;;
2866;SDS011;1441;48.886;8.728;2024-02-21T04:40:10;2.50;;;1.40;;
2866;SDS011;1441;48.886;8.728;2024-02-21T04:42:36;4.40;;;1.70;;
2866;SDS011;1441;48.886;8.728;2024-02-21T04:45:01;16.63;;;2.00;;
2866;SDS011;1441;48.886;8.728;2024-02-21T04:47:27;4.60;;;1.63;;
2866;SDS011;1441;48.886;8.728;2024-02-21T04:49:53;3.80;;;2.13;;
2866;SDS011;1441;48.886;8.728;2024-02-21T04:52:18;6.37;;;2.20;;
2866;SDS011;1441;48.886;8.728;2024-02-21T04:54:44;5.50;;;2.80;;
2866;SDS011;1441;48.886;8.728;2024-02-21T04:57:09;8.60;;;2.50;;
2866;SDS011;1441;48.886;8.728;2024-02-21T04:59:35;4.10;;;2.27;;
2866;SDS011;1441;48.886;8.728;2024-02-21T05:02:01;6.90;;;2.40;;
2866;SDS011;1441;48.886;8.728;2024-02-21T05:04:27;7.57;;;3.30;;
2866;SDS011;1441;48.886;8.728;2024-02-21T05:06:52;6.53;;;2.90;;
2866;SDS011;1441;48.886;8.728;2024-02-21T05:09:18;9.87;;;2.90;;
2866;SDS011;1441;48.886;8.728;2024-02-21T05:11:43;6.57;;;1.90;;
2866;SDS011;1441;48.886;8.728;2024-02-21T05:14:09;4.37;;;2.00;;
2866;SDS011;1441;48.886;8.728;2024-02-21T05:16:35;2.43;;;1.43;;
2866;SDS011;1441;48.886;8.728;2024-02-21T05:19:01;5.17;;;1.93;;
2866;SDS011;1441;48.886;8.728;2024-02-21T05:21:28;7.83;;;1.47;;
2866;SDS011;1441;48.886;8.728;2024-02-21T05:23:53;5.40;;;1.63;;
2866;SDS011;1441;48.886;8.728;2024-02-21T05:26:22;6.07;;;2.00;;
2866;SDS011;1441;48.886;8.728;2024-02-21T05:28:49;6.63;;;1.97;;
2866;SDS011;1441;48.886;8.728;2024-02-21T05:31:15;5.40;;;1.60;;
2866;SDS011;1441;48.886;8.728;2024-02-21T05:33:41;7.90;;;2.80;;
2866;SDS011;1441;48.886;8.728;2024-02-21T05:36:07;6.53;;;2.63;;
2866;SDS011;1441;48.886;8.728;2024-02-21T05:38:33;10.50;;;2.87;;
2866;SDS011;1441;48.886;8.728;2024-02-21T05:40:59;7.43;;;2.67;;
2866;SDS011;1441;48.886;8.728;2024-02-21T05:43:24;6.77;;;2.70;;
2866;SDS011;1441;48.886;8.728;2024-02-21T05:45:50;12.13;;;3.10;;
2866;SDS011;1441;48.886;8.728;2024-02-21T05:48:15;12.07;;;3.20;;
2866;SDS011;1441;48.886;8.728;2024-02-21T05:50:41;4.70;;;2.57;;
2866;SDS011;1441;48.886;8.728;2024-02-21T05:53:06;4.77;;;3.07;;
2866;SDS011;1441;48.886;8.728;2024-02-21T05:55:32;8.70;;;2.70;;
2866;SDS011;1441;48.886;8.728;2024-02-21T05:57:57;5.50;;;1.97;;
2866;SDS011;1441;48.886;8.728;2024-02-21T06:00:23;4.07;;;1.90;;
2866;SDS011;1441;48.886;8.728;2024-02-21T06:02:48;2.60;;;1.53;;
2866;SDS011;1441;48.886;8.728;2024-02-21T06:05:14;2.90;;;1.47;;
2866;SDS011;1441;48.886;8.728;2024-02-21T06:07:40;4.10;;;2.00;;
2866;SDS011;1441;48.886;8.728;2024-02-21T06:10:06;6.87;;;2.47;;
2866;SDS011;1441;48.886;8.728;2024-02-21T06:12:32;3.93;;;2.00;;
2866;SDS011;1441;48.886;8.728;2024-02-21T06:14:57;3.57;;;1.73;;
2866;SDS011;1441;48.886;8.728;2024-02-21T06:17:23;4.73;;;2.23;;
2866;SDS011;1441;48.886;8.728;2024-02-21T06:19:48;8.20;;;2.63;;
2866;SDS011;1441;48.886;8.728;2024-02-21T06:22:14;5.47;;;2.30;;
2866;SDS011;1441;48.886;8.728;2024-02-21T06:24:40;4.77;;;2.43;;
2866;SDS011;1441;48.886;8.728;2024-02-21T06:27:05;5.50;;;1.90;;
2866;SDS011;1441;48.886;8.728;2024-02-21T06:29:32;3.33;;;1.70;;
2866;SDS011;1441;48.886;8.728;2024-02-21T06:31:58;4.33;;;2.00;;
2866;SDS011;1441;48.886;8.728;2024-02-21T06:34:23;4.93;;;1.70;;
2866;SDS011;1441;48.886;8.728;2024-02-21T06:36:49;6.30;;;1.90;;
2866;SDS011;1441;48.886;8.728;2024-02-21T06:39:15;6.07;;;2.10;;
2866;SDS011;1441;48.886;8.728;2024-02-21T06:41:41;9.00;;;1.90;;
2866;SDS011;1441;48.886;8.728;2024-02-21T06:44:07;2.00;;;1.70;;
2866;SDS011;1441;48.886;8.728;2024-02-21T06:46:32;7.33;;;1.93;;
2866;SDS011;1441;48.886;8.728;2024-02-21T06:48:58;6.73;;;1.60;;
2866;SDS011;1441;48.886;8.728;2024-02-21T06:51:25;6.33;;;1.97;;
2866;SDS011;1441;48.886;8.728;2024-02-21T06:53:51;5.27;;;1.93;;
2866;SDS011;1441;48.886;8.728;2024-02-21T06:56:16;4.17;;;1.50;;
2866;SDS011;1441;48.886;8.728;2024-02-21T06:58:42;5.13;;;1.97;;
2866;SDS011;1441;48.886;8.728;2024-02-21T07:01:08;6.00;;;1.90;;
2866;SDS011;1441;48.886;8.728;2024-02-21T07:03:34;3.93;;;1.70;;
2866;SDS011;1441;48.886;8.728;2024-02-21T07:05:59;3.53;;;1.70;;
2866;SDS011;1441;48.886;8.728;2024-02-21T07:08:25;4.97;;;1.97;;
2866;SDS011;1441;48.886;8.728;2024-02-21T07:10:51;4.43;;;1.40;;
2866;SDS011;1441;48.886;8.728;2024-02-21T07:13:16;3.43;;;1.93;;
2866;SDS011;1441;48.886;8.728;2024-02-21T07:15:42;3.73;;;2.20;;
2866;SDS011;1441;48.886;8.728;2024-02-21T07:18:08;4.77;;;1.30;;
2866;SDS011;1441;48.886;8.728;2024-02-21T07:20:34;7.10;;;1.63;;
2866;SDS011;1441;48.886;8.728;2024-02-21T07:23:01;2.97;;;1.90;;
2866;SDS011;1441;48.886;8.728;2024-02-21T07:25:27;4.00;;;1.53;;
2866;SDS011;1441;48.886;8.728;2024-02-21T07:27:53;4.93;;;1.90;;
2866;SDS011;1441;48.886;8.728;2024-02-21T07:30:18;3.50;;;1.70;;
2866;SDS011;1441;48.886;8.728;2024-02-21T07:32:44;4.87;;;1.80;;
2866;SDS011;1441;48.886;8.728;2024-02-21T07:35:10;7.13;;;1.67;;
2866;SDS011;1441;48.886;8.728;2024-02-21T07:37:36;3.57;;;1.83;;
2866;SDS011;1441;48.886;8.728;2024-02-21T07:40:04;4.80;;;2.00;;
2866;SDS011;1441;48.886;8.728;2024-02-21T07:42:30;3.27;;;1.90;;
2866;SDS011;1441;48.886;8.728;2024-02-21T07:44:56;6.87;;;1.57;;
2866;SDS011;1441;48.886;8.728;2024-02-21T07:47:21;3.57;;;2.17;;
2866;SDS011;1441;48.886;8.728;2024-02-21T07:49:48;5.33;;;2.27;;
2866;SDS011;1441;48.886;8.728;2024-02-21T07:52:14;7.13;;;1.73;;
2866;SDS011;1441;48.886;8.728;2024-02-21T07:54:40;8.70;;;3.03;;
2866;SDS011;1441;48.886;8.728;2024-02-21T07:57:06;5.87;;;2.07;;
2866;SDS011;1441;48.886;8.728;2024-02-21T07:59:32;6.70;;;2.33;;
2866;SDS011;1441;48.886;8.728;2024-02-21T08:01:58;2.60;;;1.90;;
2866;SDS011;1441;48.886;8.728;2024-02-21T08:04:24;4.13;;;1.83;;
2866;SDS011;1441;48.886;8.728;2024-02-21T08:06:53;7.60;;;2.30;;
2866;SDS011;1441;48.886;8.728;2024-02-21T08:09:21;3.13;;;1.90;;
2866;SDS011;1441;48.886;8.728;2024-02-21T08:11:49;3.57;;;2.30;;
2866;SDS011;1441;48.886;8.728;2024-02-21T08:14:15;3.73;;;1.80;;
2866;SDS011;1441;48.886;8.728;2024-02-21T08:16:41;6.13;;;1.90;;
2866;SDS011;1441;48.886;8.728;2024-02-21T08:19:07;2.20;;;1.60;;
2866;SDS011;1441;48.886;8.728;2024-02-21T08:21:33;4.40;;;2.10;;
2866;SDS011;1441;48.886;8.728;2024-02-21T08:23:58;4.80;;;2.80;;
2866;SDS011;1441;48.886;8.728;2024-02-21T08:26:24;4.57;;;2.97;;
2866;SDS011;1441;48.886;8.728;2024-02-21T08:28:53;8.27;;;3.23;;
2866;SDS011;1441;48.886;8.728;2024-02-21T08:31:19;5.13;;;3.13;;
2866;SDS011;1441;48.886;8.728;2024-02-21T08:33:45;6.23;;;3.07;;
2866;SDS011;1441;48.886;8.728;2024-02-21T08:36:17;5.03;;;2.90;;
2866;SDS011;1441;48.886;8.728;2024-02-21T08:38:44;10.73;;;2.83;;
2866;SDS011;1441;48.886;8.728;2024-02-21T08:41:09;12.13;;;3.80;;
2866;SDS011;1441;48.886;8.728;2024-02-21T08:43:35;12.50;;;2.80;;
2866;SDS011;1441;48.886;8.728;2024-02-21T08:46:01;4.13;;;2.50;;
2866;SDS011;1441;48.886;8.728;2024-02-21T08:48:26;7.97;;;2.63;;
2866;SDS011;1441;48.886;8.728;2024-02-21T08:50:52;5.80;;;2.90;;
2866;SDS011;1441;48.886;8.728;2024-02-21T08:53:19;7.10;;;3.30;;
2866;SDS011;1441;48.886;8.728;2024-02-21T08:55:45;5.43;;;2.83;;
2866;SDS011;1441;48.886;8.728;2024-02-21T08:58:10;6.43;;;2.90;;
2866;SDS011;1441;48.886;8.728;2024-02-21T09:00:36;9.90;;;3.07;;
2866;SDS011;1441;48.886;8.728;2024-02-21T09:03:02;10.77;;;2.90;;
2866;SDS011;1441;48.886;8.728;2024-02-21T09:05:28;5.53;;;2.53;;
2866;SDS011;1441;48.886;8.728;2024-02-21T09:07:54;3.53;;;2.53;;
2866;SDS011;1441;48.886;8.728;2024-02-21T09:10:20;3.27;;;2.50;;
2866;SDS011;1441;48.886;8.728;2024-02-21T09:12:45;7.17;;;2.70;;
2866;SDS011;1441;48.886;8.728;2024-02-21T09:15:12;9.07;;;3.03;;
2866;SDS011;1441;48.886;8.728;2024-02-21T09:17:38;9.70;;;2.73;;
2866;SDS011;1441;48.886;8.728;2024-02-21T09:20:04;4.93;;;2.47;;
2866;SDS011;1441;48.886;8.728;2024-02-21T09:22:31;9.23;;;2.80;;
2866;SDS011;1441;48.886;8.728;2024-02-21T09:24:59;8.17;;;2.40;;
2866;SDS011;1441;48.886;8.728;2024-02-21T09:27:25;7.70;;;2.67;;
2866;SDS011;1441;48.886;8.728;2024-02-21T09:29:50;6.03;;;2.40;;
2866;SDS011;1441;48.886;8.728;2024-02-21T09:32:16;6.67;;;2.97;;
2866;SDS011;1441;48.886;8.728;2024-02-21T09:34:44;9.63;;;2.63;;
2866;SDS011;1441;48.886;8.728;2024-02-21T09:37:10;7.57;;;2.57;;
2866;SDS011;1441;48.886;8.728;2024-02-21T09:39:35;7.70;;;2.13;;
2866;SDS011;1441;48.886;8.728;2024-02-21T09:42:03;9.97;;;2.43;;
2866;SDS011;1441;48.886;8.728;2024-02-21T09:44:33;3.53;;;2.17;;
2866;SDS011;1441;48.886;8.728;2024-02-21T09:47:02;4.63;;;2.30;;
2866;SDS011;1441;48.886;8.728;2024-02-21T09:49:34;6.30;;;2.53;;
2866;SDS011;1441;48.886;8.728;2024-02-21T09:52:03;8.03;;;2.70;;
2866;SDS011;1441;48.886;8.728;2024-02-21T09:54:32;4.23;;;2.00;;
2866;SDS011;1441;48.886;8.728;2024-02-21T09:56:59;4.53;;;2.20;;
2866;SDS011;1441;48.886;8.728;2024-02-21T09:59:25;7.93;;;2.40;;
2866;SDS011;1441;48.886;8.728;2024-02-21T10:01:52;8.03;;;2.60;;
2866;SDS011;1441;48.886;8.728;2024-02-21T10:04:19;9.67;;;2.77;;
2866;SDS011;1441;48.886;8.728;2024-02-21T10:06:45;4.40;;;2.50;;
2866;SDS011;1441;48.886;8.728;2024-02-21T10:09:21;7.60;;;2.50;;
2866;SDS011;1441;48.886;8.728;2024-02-21T10:11:52;4.80;;;1.90;;
2866;SDS011;1441;48.886;8.728;2024-02-21T10:14:19;2.83;;;1.80;;
2866;SDS011;1441;48.886;8.728;2024-02-21T10:16:48;8.00;;;2.30;;
2866;SDS011;1441;48.886;8.728;2024-02-21T10:19:22;2.57;;;1.57;;
2866;SDS011;1441;48.886;8.728;2024-02-21T10:22:01;5.50;;;1.70;;
2866;SDS011;1441;48.886;8.728;2024-02-21T10:24:32;4.73;;;2.00;;
2866;SDS011;1441;48.886;8.728;2024-02-21T10:27:08;5.37;;;1.60;;
2866;SDS011;1441;48.886;8.728;2024-02-21T10:29:36;3.10;;;1.50;;
2866;SDS011;1441;48.886;8.728;2024-02-21T10:34:32;9.63;;;1.73;;
2866;SDS011;1441;48.886;8.728;2024-02-21T10:39:28;4.30;;;1.50;;
2866;SDS011;1441;48.886;8.728;2024-02-21T10:41:56;4.07;;;1.57;;
2866;SDS011;1441;48.886;8.728;2024-02-21T10:44:25;3.80;;;1.70;;
2866;SDS011;1441;48.886;8.728;2024-02-21T10:46:54;4.27;;;1.00;;
2866;SDS011;1441;48.886;8.728;2024-02-21T10:49:24;4.63;;;1.83;;
2866;SDS011;1441;48.886;8.728;2024-02-21T10:51:55;4.50;;;1.30;;
2866;SDS011;1441;48.886;8.728;2024-02-21T10:57:06;5.60;;;1.53;;
2866;SDS011;1441;48.886;8.728;2024-02-21T10:59:33;5.17;;;1.37;;
2866;SDS011;1441;48.886;8.728;2024-02-21T11:02:02;2.10;;;1.40;;
2866;SDS011;1441;48.886;8.728;2024-02-21T11:04:27;5.80;;;1.73;;
2866;SDS011;1441;48.886;8.728;2024-02-21T11:06:55;6.03;;;1.40;;
2866;SDS011;1441;48.886;8.728;2024-02-21T11:09:29;2.63;;;1.50;;
2866;SDS011;1441;48.886;8.728;2024-02-21T11:11:56;1.53;;;0.93;;
2866;SDS011;1441;48.886;8.728;2024-02-21T11:14:25;6.07;;;1.43;;
2866;SDS011;1441;48.886;8.728;2024-02-21T11:16:52;3.37;;;1.10;;
2866;SDS011;1441;48.886;8.728;2024-02-21T11:21:52;5.60;;;1.20;;
2866;SDS011;1441;48.886;8.728;2024-02-21T11:24:29;1.90;;;1.20;;
2866;SDS011;1441;48.886;8.728;2024-02-21T11:26:57;4.30;;;1.40;;
2866;SDS011;1441;48.886;8.728;2024-02-21T11:29:46;4.57;;;1.30;;
2866;SDS011;1441;48.886;8.728;2024-02-21T11:32:16;1.57;;;0.90;;
2866;SDS011;1441;48.886;8.728;2024-02-21T11:34:59;2.40;;;1.13;;
2866;SDS011;1441;48.886;8.728;2024-02-21T11:37:32;5.00;;;1.40;;
2866;SDS011;1441;48.886;8.728;2024-02-21T11:39:59;8.57;;;2.10;;
2866;SDS011;1441;48.886;8.728;2024-02-21T11:42:26;3.80;;;2.00;;
2866;SDS011;1441;48.886;8.728;2024-02-21T11:44:52;3.67;;;1.97;;
2866;SDS011;1441;48.886;8.728;2024-02-21T11:47:21;6.23;;;1.40;;
2866;SDS011;1441;48.886;8.728;2024-02-21T11:49:47;3.87;;;2.43;;
2866;SDS011;1441;48.886;8.728;2024-02-21T11:52:15;4.23;;;1.17;;
2866;SDS011;1441;48.886;8.728;2024-02-21T11:54:43;4.27;;;1.33;;
2866;SDS011;1441;48.886;8.728;2024-02-21T11:57:09;4.43;;;1.10;;
2866;SDS011;1441;48.886;8.728;2024-02-21T11:59:36;3.63;;;1.33;;
2866;SDS011;1441;48.886;8.728;2024-02-21T12:02:01;3.10;;;1.20;;
2866;SDS011;1441;48.886;8.728;2024-02-21T12:04:28;5.67;;;1.70;;
2866;SDS011;1441;48.886;8.728;2024-02-21T12:06:56;4.53;;;2.00;;
2866;SDS011;1441;48.886;8.728;2024-02-21T12:09:23;2.97;;;1.53;;
2866;SDS011;1441;48.886;8.728;2024-02-21T12:11:59;2.90;;;1.33;;
2866;SDS011;1441;48.886;8.728;2024-02-21T12:14:27;2.23;;;1.27;;
2866;SDS011;1441;48.886;8.728;2024-02-21T12:16:55;1.97;;;1.10;;
2866;SDS011;1441;48.886;8.728;2024-02-21T12:19:20;2.10;;;1.20;;
2866;SDS011;1441;48.886;8.728;2024-02-21T12:21:47;3.60;;;1.13;;
2866;SDS011;1441;48.886;8.728;2024-02-21T12:24:15;3.80;;;1.13;;
2866;SDS011;1441;48.886;8.728;2024-02-21T12:26:51;3.20;;;1.10;;
2866;SDS011;1441;48.886;8.728;2024-02-21T12:29:18;6.47;;;1.27;;
2866;SDS011;1441;48.886;8.728;2024-02-21T12:31:49;2.93;;;1.40;;
2866;SDS011;1441;48.886;8.728;2024-02-21T12:34:15;6.60;;;1.63;;
2866;SDS011;1441;48.886;8.728;2024-02-21T12:36:42;4.60;;;1.37;;
2866;SDS011;1441;48.886;8.728;2024-02-21T12:39:09;3.40;;;1.50;;
2866;SDS011;1441;48.886;8.728;2024-02-21T12:41:37;4.03;;;0.97;;
2866;SDS011;1441;48.886;8.728;2024-02-21T12:44:06;2.90;;;1.33;;
2866;SDS011;1441;48.886;8.728;2024-02-21T12:46:35;3.87;;;1.13;;
2866;SDS011;1441;48.886;8.728;2024-02-21T12:49:01;8.00;;;1.63;;
2866;SDS011;1441;48.886;8.728;2024-02-21T12:51:28;2.13;;;1.00;;
2866;SDS011;1441;48.886;8.728;2024-02-21T12:53:54;2.93;;;1.10;;
2866;SDS011;1441;48.886;8.728;2024-02-21T12:56:20;3.33;;;1.40;;
2866;SDS011;1441;48.886;8.728;2024-02-21T12:58:45;5.23;;;1.40;;
2866;SDS011;1441;48.886;8.728;2024-02-21T13:01:11;2.80;;;1.20;;
2866;SDS011;1441;48.886;8.728;2024-02-21T13:03:37;6.27;;;1.70;;
2866;SDS011;1441;48.886;8.728;2024-02-21T13:06:03;6.60;;;1.30;;
2866;SDS011;1441;48.886;8.728;2024-02-21T13:08:29;3.40;;;1.37;;
2866;SDS011;1441;48.886;8.728;2024-02-21T13:10:54;4.33;;;1.47;;
2866;SDS011;1441;48.886;8.728;2024-02-21T13:13:20;4.30;;;1.20;;
2866;SDS011;1441;48.886;8.728;2024-02-21T13:15:46;2.83;;;1.13;;
2866;SDS011;1441;48.886;8.728;2024-02-21T13:18:11;3.53;;;1.17;;
2866;SDS011;1441;48.886;8.728;2024-02-21T13:20:37;2.80;;;1.30;;
2866;SDS011;1441;48.886;8.728;2024-02-21T13:23:03;7.30;;;1.50;;
2866;SDS011;1441;48.886;8.728;2024-02-21T13:25:28;6.50;;;1.13;;
2866;SDS011;1441;48.886;8.728;2024-02-21T13:27:54;3.90;;;1.13;;
2866;SDS011;1441;48.886;8.728;2024-02-21T13:30:22;4.33;;;1.37;;
2866;SDS011;1441;48.886;8.728;2024-02-21T13:32:48;1.80;;;1.00;;
2866;SDS011;1441;48.886;8.728;2024-02-21T13:35:14;4.87;;;1.37;;
2866;SDS011;1441;48.886;8.728;2024-02-21T13:37:43;3.20;;;1.77;;
2866;SDS011;1441;48.886;8.728;2024-02-21T13:40:08;3.57;;;1.17;;
2866;SDS011;1441;48.886;8.728;2024-02-21T13:42:34;3.40;;;1.20;;
2866;SDS011;1441;48.886;8.728;2024-02-21T13:45:01;6.03;;;1.50;;
2866;SDS011;1441;48.886;8.728;2024-02-21T13:47:26;4.70;;;1.70;;
2866;SDS011;1441;48.886;8.728;2024-02-21T13:49:52;7.97;;;1.63;;
2866;SDS011;1441;48.886;8.728;2024-02-21T13:52:17;2.57;;;1.43;;
2866;SDS011;1441;48.886;8.728;2024-02-21T13:54:46;5.40;;;1.57;;
2866;SDS011;1441;48.886;8.728;2024-02-21T13:57:11;3.13;;;1.67;;
2866;SDS011;1441;48.886;8.728;2024-02-21T13:59:37;8.80;;;1.80;;
2866;SDS011;1441;48.886;8.728;2024-02-21T14:02:04;6.17;;;2.23;;
2866;SDS011;1441;48.886;8.728;2024-02-21T14:04:32;6.20;;;2.63;;
2866;SDS011;1441;48.886;8.728;2024-02-21T14:06:58;4.70;;;2.07;;
2866;SDS011;1441;48.886;8.728;2024-02-21T14:09:24;6.60;;;2.03;;
2866;SDS011;1441;48.886;8.728;2024-02-21T14:11:51;10.27;;;2.33;;
2866;SDS011;1441;48.886;8.728;2024-02-21T14:14:16;6.93;;;1.93;;
2866;SDS011;1441;48.886;8.728;2024-02-21T14:16:42;5.43;;;2.10;;
2866;SDS011;1441;48.886;8.728;2024-02-21T14:19:07;7.40;;;2.00;;
2866;SDS011;1441;48.886;8.728;2024-02-21T14:21:34;8.30;;;1.93;;
2866;SDS011;1441;48.886;8.728;2024-02-21T14:24:02;5.33;;;2.03;;
2866;SDS011;1441;48.886;8.728;2024-02-21T14:26:28;6.40;;;1.83;;
2866;SDS011;1441;48.886;8.728;2024-02-21T14:28:56;5.90;;;1.70;;
2866;SDS011;1441;48.886;8.728;2024-02-21T14:31:22;10.73;;;3.77;;
2866;SDS011;1441;48.886;8.728;2024-02-21T14:33:48;14.30;;;2.17;;
2866;SDS011;1441;48.886;8.728;2024-02-21T14:36:13;7.80;;;1.97;;
2866;SDS011;1441;48.886;8.728;2024-02-21T14:38:40;3.80;;;1.47;;
2866;SDS011;1441;48.886;8.728;2024-02-21T14:41:06;4.40;;;1.70;;
2866;SDS011;1441;48.886;8.728;2024-02-21T14:43:32;3.17;;;1.90;;
2866;SDS011;1441;48.886;8.728;2024-02-21T14:45:59;7.00;;;1.70;;
2866;SDS011;1441;48.886;8.728;2024-02-21T14:48:25;3.47;;;1.67;;
2866;SDS011;1441;48.886;8.728;2024-02-21T14:50:51;5.10;;;1.40;;
2866;SDS011;1441;48.886;8.728;2024-02-21T14:53:16;3.20;;;1.77;;
2866;SDS011;1441;48.886;8.728;2024-02-21T14:55:43;7.83;;;1.60;;
2866;SDS011;1441;48.886;8.728;2024-02-21T14:58:08;2.63;;;1.20;;
2866;SDS011;1441;48.886;8.728;2024-02-21T15:00:34;3.13;;;1.97;;
2866;SDS011;1441;48.886;8.728;2024-02-21T15:03:00;5.10;;;1.73;;
2866;SDS011;1441;48.886;8.728;2024-02-21T15:05:25;4.13;;;1.63;;
2866;SDS011;1441;48.886;8.728;2024-02-21T15:07:51;4.23;;;1.00;;
2866;SDS011;1441;48.886;8.728;2024-02-21T15:10:17;5.77;;;1.30;;
2866;SDS011;1441;48.886;8.728;2024-02-21T15:12:45;5.33;;;1.90;;
2866;SDS011;1441;48.886;8.728;2024-02-21T15:15:11;5.93;;;1.33;;
2866;SDS011;1441;48.886;8.728;2024-02-21T15:17:37;8.23;;;1.83;;
2866;SDS011;1441;48.886;8.728;2024-02-21T15:20:03;13.17;;;1.80;;